Terminal Aerodrome Forecast
Issued by NWS Cleveland, OH

Home | Current Version | Previous Version | Graphics & Text | Print | Product List | Glossary On
Versions: 1 2 3 4 5 6 7 8 9 10 11 12 13 14 15 16 17 18 19 20 21
000
FTUS41 KCLE 210533
TAFERI
TAF
KERI 210533Z 2106/2206 VRB03KT P6SM SCT070
     FM210900 06004KT 3SM BR SCT080
     FM211100 07005KT P6SM SCT090
     FM212100 04010KT P6SM SCT050 BKN090
     FM220300 08007KT P6SM VCTS SCT050CB BKN070=

USA.gov is the U.S. government's official web portal to all federal, state and local government web resources and services.